Rocky Butte, Washington
Current Conditions -  °F | °C
As of 2:53 PM on Saturday 20 Dec 2014 (Local Time) from KOMK Reporting Station
Light Rain Light Rain  
Wind Chill:   Ceiling: 700
Heat Index:   Visibility: 2mi
Dew Point:   Wind: 0mph
Humidity: 96%   Direction: NA
Pressure: 29.66"   Gusts: NA
Location:  48.2133°N, 119.829°W
Report Text: KOMK 202253Z AUTO 00000KT 2SM -RA BR OVC007 02/01 A2966 RMK AO2 RAE08B25 SLP056 P0002 T00170011
Loading
Personal Weather Stations






























Interactive Weather Map New forecast layout! Learn more

10-Day Weather Forecast

Advertisements
Track Severe Weather on mobile